Terminal Aerodrome Forecast
Issued by NWS Chicago, IL

Home | Current Version | Previous Version | Text Only | Print | Product List | Glossary On
Versions: 1 2 3 4 5 6 7 8 9 10 11 12 13 14 15 16 17 18 19 20 21 22 23 24
000
FTUS43 KLOT 110528
TAFRFD
TAF
KRFD 110528Z 1106/1206 15010KT 1SM -SN BR SCT012 OVC030
      TEMPO 1106/1110 1/2SM SN OVC012
     FM111100 15012KT 2SM -SN BR SCT007 OVC012
     FM111600 17012KT 1SM -SN BR OVC007
     FM111800 18010KT 3/4SM -SN BR OVC005
      TEMPO 1118/1122 1/2SM SN VV004
     FM112300 23010KT 5SM -SN BKN008 OVC015
     FM120200 28010KT P6SM SCT015 BKN025=

USA.gov is the U.S. government's official web portal to all federal, state and local government web resources and services.